Time,TemperatureF,DewpointF,PressureIn,WindDirection,WindDirectionDegrees,WindSpeedMPH,WindSpeedGustMPH,Humidity,HourlyPrecipIn,Conditions,Clouds,dailyrainin,SolarRadiationWatts/m^2,SoftwareType,DateUTC
2013-06-12 00:22:00,80.0,63.0,-100.00,SSE,165,17.0,23.0,56,0.00,,,0.01,0.000000,,2013-06-12 05:22:00,
2013-06-12 00:32:00,80.0,63.0,-100.00,SSE,165,17.0,23.0,56,0.00,,,0.01,0.000000,,2013-06-12 05:32:00,
2013-06-12 00:42:00,80.0,63.0,-100.00,SSE,165,17.0,23.0,56,0.00,,,0.01,0.000000,,2013-06-12 05:42:00,
2013-06-12 00:52:00,80.0,63.0,-100.00,SSE,165,17.0,23.0,56,0.00,,,0.01,0.000000,,2013-06-12 05:52:00,
2013-06-12 01:22:00,82.0,65.0,-100.00,South,179,27.0,52.0,56,0.00,,,0.01,0.000000,,2013-06-12 06:22:00,
2013-06-12 01:32:00,82.0,65.0,-100.00,South,179,27.0,52.0,56,0.00,,,0.01,0.000000,,2013-06-12 06:32:00,
2013-06-12 01:42:00,82.0,65.0,-100.00,South,179,27.0,52.0,56,0.00,,,0.01,0.000000,,2013-06-12 06:42:00,
2013-06-12 01:52:00,82.0,65.0,-100.00,South,179,27.0,52.0,56,0.00,,,0.01,0.000000,,2013-06-12 06:52:00,
2013-06-12 02:22:00,77.0,65.0,-100.00,South,184,8.0,39.0,66,0.00,,,0.01,0.000000,,2013-06-12 07:22:00,
2013-06-12 02:33:00,77.0,65.0,-100.00,South,184,8.0,39.0,66,0.00,,,0.01,0.000000,,2013-06-12 07:33:00,
2013-06-12 02:43:00,77.0,65.0,-100.00,South,184,8.0,39.0,66,0.00,,,0.01,0.000000,,2013-06-12 07:43:00,
2013-06-12 02:53:00,77.0,65.0,-100.00,South,184,8.0,39.0,66,0.00,,,0.01,0.000000,,2013-06-12 07:53:00,
2013-06-12 03:33:00,73.0,62.0,-100.00,South,176,6.0,17.0,69,0.00,,,0.01,0.000000,,2013-06-12 08:33:00,
2013-06-12 03:43:00,73.0,62.0,-100.00,South,176,6.0,17.0,69,0.00,,,0.01,0.000000,,2013-06-12 08:43:00,
2013-06-12 03:53:00,73.0,62.0,-100.00,South,176,6.0,17.0,69,0.00,,,0.01,0.000000,,2013-06-12 08:53:00,
2013-06-12 06:24:00,63.0,63.0,-100.00,NW,323,4.0,9.0,99,0.00,,,0.00,0.000000,,2013-06-12 11:24:00,
2013-06-12 06:33:00,63.0,63.0,-100.00,NW,323,4.0,9.0,99,0.00,,,0.00,0.000000,,2013-06-12 11:33:00,
2013-06-12 06:43:00,63.0,63.0,-100.00,NW,323,4.0,9.0,99,0.00,,,0.00,0.000000,,2013-06-12 11:43:00,
2013-06-12 06:53:00,63.0,63.0,-100.00,NW,323,4.0,9.0,99,0.00,,,0.00,0.000000,,2013-06-12 11:53:00,
2013-06-12 07:23:00,64.0,63.0,-100.00,NW,321,5.0,6.0,98,0.00,,,0.00,0.000000,,2013-06-12 12:23:00,
2013-06-12 07:33:00,64.0,63.0,-100.00,NW,321,5.0,6.0,98,0.00,,,0.00,0.000000,,2013-06-12 12:33:00,
2013-06-12 07:42:00,64.0,63.0,-100.00,NW,321,5.0,6.0,98,0.00,,,0.00,0.000000,,2013-06-12 12:42:00,
2013-06-12 07:53:00,64.0,63.0,-100.00,NW,321,5.0,6.0,98,0.00,,,0.00,0.000000,,2013-06-12 12:53:00,
2013-06-12 08:22:00,72.0,69.0,-100.00,NW,320,15.0,22.0,91,0.00,,,0.00,0.000000,,2013-06-12 13:22:00,
2013-06-12 08:32:00,72.0,69.0,-100.00,NW,320,15.0,22.0,91,0.00,,,0.00,0.000000,,2013-06-12 13:32:00,
2013-06-12 08:43:00,72.0,69.0,-100.00,NW,320,15.0,22.0,91,0.00,,,0.00,0.000000,,2013-06-12 13:43:00,
2013-06-12 08:53:00,72.0,69.0,-100.00,NW,320,15.0,22.0,91,0.00,,,0.00,0.000000,,2013-06-12 13:53:00,
2013-06-12 09:24:00,74.0,69.0,-100.00,NNW,335,17.0,28.0,85,0.00,,,0.00,0.000000,,2013-06-12 14:24:00,
2013-06-12 09:33:00,74.0,69.0,-100.00,NNW,335,17.0,28.0,85,0.00,,,0.00,0.000000,,2013-06-12 14:33:00,
2013-06-12 09:43:00,74.0,69.0,-100.00,NNW,335,17.0,28.0,85,0.00,,,0.00,0.000000,,2013-06-12 14:43:00,
2013-06-12 09:53:00,74.0,69.0,-100.00,NNW,335,17.0,28.0,85,0.00,,,0.00,0.000000,,2013-06-12 14:53:00,
2013-06-12 10:23:00,78.0,68.0,-100.00,NNW,327,14.0,21.0,72,0.00,,,0.00,0.000000,,2013-06-12 15:23:00,
2013-06-12 10:33:00,78.0,68.0,-100.00,NNW,327,14.0,21.0,72,0.00,,,0.00,0.000000,,2013-06-12 15:33:00,
2013-06-12 10:43:00,78.0,68.0,-100.00,NNW,327,14.0,21.0,72,0.00,,,0.00,0.000000,,2013-06-12 15:43:00,
2013-06-12 10:52:00,78.0,68.0,-100.00,NNW,327,14.0,21.0,72,0.00,,,0.00,0.000000,,2013-06-12 15:52:00,
2013-06-12 11:22:00,79.0,68.0,-100.00,NW,317,14.0,23.0,69,0.00,,,0.00,0.000000,,2013-06-12 16:22:00,
2013-06-12 11:32:00,79.0,68.0,-100.00,NW,317,14.0,23.0,69,0.00,,,0.00,0.000000,,2013-06-12 16:32:00,
2013-06-12 11:43:00,79.0,68.0,-100.00,NW,317,14.0,23.0,69,0.00,,,0.00,0.000000,,2013-06-12 16:43:00,
2013-06-12 11:52:00,79.0,68.0,-100.00,NW,317,14.0,23.0,69,0.00,,,0.00,0.000000,,2013-06-12 16:52:00,
2013-06-12 12:22:00,82.0,65.0,-100.00,NW,323,17.0,26.0,57,0.00,,,0.00,0.000000,,2013-06-12 17:22:00,
2013-06-12 12:33:00,82.0,65.0,-100.00,NW,323,17.0,26.0,57,0.00,,,0.00,0.000000,,2013-06-12 17:33:00,
2013-06-12 12:42:00,82.0,65.0,-100.00,NW,323,17.0,26.0,57,0.00,,,0.00,0.000000,,2013-06-12 17:42:00,
2013-06-12 12:52:00,82.0,65.0,-100.00,NW,323,17.0,26.0,57,0.00,,,0.00,0.000000,,2013-06-12 17:52:00,
2013-06-12 13:22:00,85.0,63.0,-100.00,NW,325,19.0,27.0,48,0.00,,,0.00,0.000000,,2013-06-12 18:22:00,
2013-06-12 13:32:00,85.0,63.0,-100.00,NW,325,19.0,27.0,48,0.00,,,0.00,0.000000,,2013-06-12 18:32:00,
2013-06-12 13:43:00,85.0,63.0,-100.00,NW,325,19.0,27.0,48,0.00,,,0.00,0.000000,,2013-06-12 18:43:00,
2013-06-12 13:53:00,85.0,63.0,-100.00,NW,325,19.0,27.0,48,0.00,,,0.00,0.000000,,2013-06-12 18:53:00,
2013-06-12 14:22:00,85.0,61.0,-100.00,NW,324,18.0,28.0,44,0.00,,,0.00,0.000000,,2013-06-12 19:22:00,
2013-06-12 14:32:00,85.0,61.0,-100.00,NW,324,18.0,28.0,44,0.00,,,0.00,0.000000,,2013-06-12 19:32:00,
2013-06-12 14:42:00,85.0,61.0,-100.00,NW,324,18.0,28.0,44,0.00,,,0.00,0.000000,,2013-06-12 19:42:00,
2013-06-12 14:52:00,85.0,61.0,-100.00,NW,324,18.0,28.0,44,0.00,,,0.00,0.000000,,2013-06-12 19:52:00,
2013-06-12 15:22:00,85.0,61.0,-100.00,NNW,328,17.0,26.0,45,0.00,,,0.00,0.000000,,2013-06-12 20:22:00,
2013-06-12 15:32:00,85.0,61.0,-100.00,NNW,328,17.0,26.0,45,0.00,,,0.00,0.000000,,2013-06-12 20:32:00,
2013-06-12 15:42:00,85.0,61.0,-100.00,NNW,328,17.0,26.0,45,0.00,,,0.00,0.000000,,2013-06-12 20:42:00,
2013-06-12 15:54:00,85.0,61.0,-100.00,NNW,328,17.0,26.0,45,0.00,,,0.00,0.000000,,2013-06-12 20:54:00,
2013-06-12 16:22:00,85.0,61.0,-100.00,NW,325,17.0,24.0,45,0.00,,,0.00,0.000000,,2013-06-12 21:22:00,
2013-06-12 16:33:00,85.0,61.0,-100.00,NW,325,17.0,24.0,45,0.00,,,0.00,0.000000,,2013-06-12 21:33:00,
2013-06-12 16:43:00,85.0,61.0,-100.00,NW,325,17.0,24.0,45,0.00,,,0.00,0.000000,,2013-06-12 21:43:00,
2013-06-12 16:52:00,85.0,61.0,-100.00,NW,325,17.0,24.0,45,0.00,,,0.00,0.000000,,2013-06-12 21:52:00,
2013-06-12 17:22:00,84.0,60.0,-100.00,NNW,334,16.0,25.0,44,0.00,,,0.00,0.000000,,2013-06-12 22:22:00,
2013-06-12 17:32:00,84.0,60.0,-100.00,NNW,334,16.0,25.0,44,0.00,,,0.00,0.000000,,2013-06-12 22:32:00,
2013-06-12 17:43:00,84.0,60.0,-100.00,NNW,334,16.0,25.0,44,0.00,,,0.00,0.000000,,2013-06-12 22:43:00,
2013-06-12 17:52:00,84.0,60.0,-100.00,NNW,334,16.0,25.0,44,0.00,,,0.00,0.000000,,2013-06-12 22:52:00,
2013-06-12 18:22:00,82.0,60.0,-100.00,NNW,333,17.0,25.0,47,0.00,,,0.00,0.000000,,2013-06-12 23:22:00,
2013-06-12 18:32:00,82.0,60.0,-100.00,NNW,333,17.0,25.0,47,0.00,,,0.00,0.000000,,2013-06-12 23:32:00,
2013-06-12 18:42:00,82.0,60.0,-100.00,NNW,333,17.0,25.0,47,0.00,,,0.00,0.000000,,2013-06-12 23:42:00,
2013-06-12 18:52:00,82.0,60.0,-100.00,NNW,333,17.0,25.0,47,0.00,,,0.00,0.000000,,2013-06-12 23:52:00,
2013-06-12 19:22:00,78.0,58.0,-100.00,NNW,338,17.0,28.0,51,0.00,,,0.00,0.000000,,2013-06-13 00:22:00,
2013-06-12 19:32:00,78.0,58.0,-100.00,NNW,338,17.0,28.0,51,0.00,,,0.00,0.000000,,2013-06-13 00:32:00,
2013-06-12 19:42:00,78.0,58.0,-100.00,NNW,338,17.0,28.0,51,0.00,,,0.00,0.000000,,2013-06-13 00:42:00,
2013-06-12 19:52:00,78.0,58.0,-100.00,NNW,338,17.0,28.0,51,0.00,,,0.00,0.000000,,2013-06-13 00:52:00,
2013-06-12 20:22:00,73.0,55.0,-100.00,NNW,342,18.0,26.0,54,0.00,,,0.00,0.000000,,2013-06-13 01:22:00,
2013-06-12 20:32:00,73.0,55.0,-100.00,NNW,342,18.0,26.0,54,0.00,,,0.00,0.000000,,2013-06-13 01:32:00,
2013-06-12 20:43:00,73.0,55.0,-100.00,NNW,342,18.0,26.0,54,0.00,,,0.00,0.000000,,2013-06-13 01:43:00,
2013-06-12 20:53:00,73.0,55.0,-100.00,NNW,342,18.0,26.0,54,0.00,,,0.00,0.000000,,2013-06-13 01:53:00,
2013-06-12 21:22:00,70.0,54.0,-100.00,NNW,340,15.0,25.0,57,0.00,,,0.00,0.000000,,2013-06-13 02:22:00,
2013-06-12 21:33:00,70.0,54.0,-100.00,NNW,340,15.0,25.0,57,0.00,,,0.00,0.000000,,2013-06-13 02:33:00,
2013-06-12 21:43:00,70.0,54.0,-100.00,NNW,340,15.0,25.0,57,0.00,,,0.00,0.000000,,2013-06-13 02:43:00,
2013-06-12 21:52:00,70.0,54.0,-100.00,NNW,340,15.0,25.0,57,0.00,,,0.00,0.000000,,2013-06-13 02:52:00,
2013-06-12 22:22:00,67.0,52.0,-100.00,NNW,337,10.0,19.0,58,0.00,,,0.00,0.000000,,2013-06-13 03:22:00,
2013-06-12 22:33:00,67.0,52.0,-100.00,NNW,337,10.0,19.0,58,0.00,,,0.00,0.000000,,2013-06-13 03:33:00,
2013-06-12 22:42:00,67.0,52.0,-100.00,NNW,337,10.0,19.0,58,0.00,,,0.00,0.000000,,2013-06-13 03:42:00,
2013-06-12 22:52:00,67.0,52.0,-100.00,NNW,337,10.0,19.0,58,0.00,,,0.00,0.000000,,2013-06-13 03:52:00,
2013-06-12 23:22:00,64.0,52.0,-100.00,NNW,344,9.0,16.0,65,0.00,,,0.00,0.000000,,2013-06-13 04:22:00,
2013-06-12 23:32:00,64.0,52.0,-100.00,NNW,344,9.0,16.0,65,0.00,,,0.00,0.000000,,2013-06-13 04:32:00,
2013-06-12 23:43:00,64.0,52.0,-100.00,NNW,344,9.0,16.0,65,0.00,,,0.00,0.000000,,2013-06-13 04:43:00,
2013-06-12 23:53:00,64.0,52.0,-100.00,NNW,344,9.0,16.0,65,0.00,,,0.00,0.000000,,2013-06-13 04:53:00,